createdAt,value
2019-03-31T00:02:28.424Z,27.77
2019-03-31T00:05:32.163Z,29.30
2019-03-31T00:08:35.884Z,28.85
2019-03-31T00:11:39.515Z,25.77
2019-03-31T00:14:43.367Z,26.75
2019-03-31T00:17:46.992Z,25.23
2019-03-31T00:20:50.756Z,24.12
2019-03-31T00:23:54.484Z,24.30
2019-03-31T00:26:58.096Z,22.95
2019-03-31T00:30:01.764Z,23.40
2019-03-31T00:33:05.507Z,22.67
2019-03-31T00:36:09.186Z,23.10
2019-03-31T00:39:12.915Z,22.93
2019-03-31T00:42:16.605Z,22.80
2019-03-31T00:45:20.278Z,22.45
2019-03-31T00:48:24.434Z,22.22
2019-03-31T00:51:28.344Z,21.97
2019-03-31T00:54:32.072Z,22.10
2019-03-31T00:57:35.658Z,22.42
2019-03-31T01:00:46.825Z,22.60
2019-03-31T01:03:50.647Z,22.77
2019-03-31T01:06:54.587Z,22.52
2019-03-31T01:09:58.598Z,22.62
2019-03-31T01:13:02.376Z,22.73
2019-03-31T01:16:07.106Z,23.10
2019-03-31T01:19:11.185Z,23.57
2019-03-31T01:22:14.858Z,24.50
2019-03-31T01:25:18.897Z,23.85
2019-03-31T01:28:22.759Z,24.27
2019-03-31T01:31:28.319Z,24.15
2019-03-31T01:34:32.081Z,24.43
2019-03-31T01:37:35.796Z,24.92
2019-03-31T01:40:39.433Z,25.70
2019-03-31T01:43:43.171Z,25.12
2019-03-31T01:46:46.978Z,25.85
2019-03-31T01:49:50.638Z,25.75
2019-03-31T01:52:54.336Z,25.62
2019-03-31T01:55:57.940Z,25.95
2019-03-31T01:59:01.675Z,25.08
2019-03-31T02:02:05.518Z,26.48
2019-03-31T02:05:09.254Z,25.90
2019-03-31T02:08:12.951Z,26.25
2019-03-31T02:11:16.614Z,26.10
2019-03-31T02:14:20.287Z,26.97
2019-03-31T02:17:24.254Z,28.47
2019-03-31T02:20:27.903Z,29.35
2019-03-31T02:23:31.542Z,29.95
2019-03-31T02:26:35.194Z,29.10
2019-03-31T02:29:38.902Z,28.70
2019-03-31T02:32:42.722Z,30.88
2019-03-31T02:35:46.389Z,31.12
2019-03-31T02:38:50.041Z,32.25
2019-03-31T02:41:53.641Z,33.33
2019-03-31T02:44:57.470Z,34.73
2019-03-31T02:48:01.201Z,35.08
2019-03-31T02:51:04.808Z,37.08
2019-03-31T02:54:08.459Z,37.25
2019-03-31T02:57:12.381Z,36.90
2019-03-31T03:00:16.044Z,36.68
2019-03-31T03:03:19.967Z,37.17
2019-03-31T03:06:23.646Z,36.53
2019-03-31T03:09:27.303Z,37.63
2019-03-31T03:12:30.960Z,37.08
2019-03-31T03:15:40.322Z,39.18
2019-03-31T03:18:43.943Z,40.55
2019-03-31T03:21:47.554Z,40.65
2019-03-31T03:24:51.345Z,42.03
2019-03-31T03:27:54.994Z,43.28
2019-03-31T03:30:58.768Z,43.13
2019-03-31T03:34:02.624Z,42.53
2019-03-31T03:37:06.345Z,42.60
2019-03-31T03:40:09.998Z,41.83
2019-03-31T03:43:13.698Z,40.30
2019-03-31T03:46:17.362Z,39.13
2019-03-31T03:49:20.977Z,36.30
2019-03-31T03:52:24.582Z,38.50
2019-03-31T03:55:28.236Z,39.25
2019-03-31T03:58:31.910Z,37.10
2019-03-31T04:01:35.571Z,36.23
2019-03-31T04:04:39.336Z,37.33
2019-03-31T04:07:42.913Z,38.67
2019-03-31T04:10:49.683Z,39.25
2019-03-31T04:13:53.306Z,39.50
2019-03-31T04:16:56.861Z,38.17
2019-03-31T04:20:00.633Z,38.08
2019-03-31T04:23:04.239Z,38.28
2019-03-31T04:26:07.903Z,37.35
2019-03-31T04:29:11.557Z,38.23
2019-03-31T04:32:15.193Z,38.40
2019-03-31T04:35:19.021Z,38.95
2019-03-31T04:38:22.722Z,37.50
2019-03-31T04:41:26.400Z,39.00
2019-03-31T04:44:30.102Z,37.65
2019-03-31T04:47:33.704Z,39.33
2019-03-31T04:50:37.422Z,37.55
2019-03-31T04:53:41.098Z,38.70
2019-03-31T04:56:44.750Z,36.93
2019-03-31T04:59:48.577Z,35.60
2019-03-31T05:02:52.230Z,35.55
2019-03-31T05:05:55.909Z,34.15
2019-03-31T05:08:59.620Z,32.35
2019-03-31T05:12:03.302Z,33.92
2019-03-31T05:15:07.278Z,31.25
2019-03-31T05:18:10.992Z,31.87
2019-03-31T05:21:14.717Z,29.65
2019-03-31T05:24:18.395Z,31.05
2019-03-31T05:27:22.142Z,29.98
2019-03-31T05:30:25.847Z,26.90
2019-03-31T05:33:29.426Z,29.55
2019-03-31T05:36:33.089Z,28.20
2019-03-31T05:39:36.803Z,29.52
2019-03-31T05:42:40.554Z,26.35
2019-03-31T05:45:44.272Z,24.50
2019-03-31T05:48:48.008Z,23.75
2019-03-31T05:51:51.681Z,22.42
2019-03-31T05:54:55.406Z,23.02
2019-03-31T05:57:59.153Z,21.23
2019-03-31T06:01:02.944Z,20.95
2019-03-31T06:04:06.748Z,21.73
2019-03-31T06:07:10.578Z,19.87
2019-03-31T06:10:15.038Z,20.70
2019-03-31T06:13:18.711Z,21.02
2019-03-31T06:16:22.342Z,22.02
2019-03-31T06:19:25.961Z,20.55
2019-03-31T06:22:29.803Z,21.87
2019-03-31T06:25:33.610Z,20.65
2019-03-31T06:28:37.712Z,20.75
2019-03-31T06:31:41.636Z,18.70
2019-03-31T06:34:47.645Z,15.47
2019-03-31T06:37:51.248Z,18.87
2019-03-31T06:40:57.468Z,18.55
2019-03-31T06:44:01.359Z,18.12
2019-03-31T06:47:05.394Z,16.57
2019-03-31T06:50:09.341Z,15.80
2019-03-31T06:53:13.056Z,16.60
2019-03-31T06:56:16.942Z,18.25
2019-03-31T06:59:20.662Z,22.10
2019-03-31T07:02:24.520Z,20.35
2019-03-31T07:05:28.360Z,16.15
2019-03-31T07:08:32.198Z,16.62
2019-03-31T07:11:36.048Z,12.25
2019-03-31T07:14:39.910Z,12.37
2019-03-31T07:17:46.944Z,12.58
2019-03-31T07:20:51.322Z,11.30
2019-03-31T07:23:55.386Z,11.03
2019-03-31T07:27:00.077Z,10.50
2019-03-31T07:30:07.186Z,9.65
2019-03-31T07:33:11.453Z,9.95
2019-03-31T07:36:15.554Z,10.00
2019-03-31T07:39:19.115Z,9.08
2019-03-31T07:42:23.206Z,11.18
2019-03-31T07:45:27.364Z,6.90
2019-03-31T07:48:31.004Z,6.60
2019-03-31T07:51:37.420Z,5.58
2019-03-31T07:54:40.116Z,5.92
2019-03-31T07:57:43.817Z,5.92
2019-03-31T08:00:48.275Z,4.67
2019-03-31T08:03:52.414Z,5.17
2019-03-31T08:06:56.300Z,5.97
2019-03-31T08:10:00.451Z,5.58
2019-03-31T08:13:04.509Z,5.10
2019-03-31T08:16:08.194Z,6.70
2019-03-31T08:19:11.976Z,5.05
2019-03-31T08:22:15.880Z,4.65
2019-03-31T08:25:21.210Z,4.50
2019-03-31T08:28:25.918Z,4.22
2019-03-31T08:31:29.932Z,3.08
2019-03-31T08:34:33.853Z,3.50
2019-03-31T08:37:37.736Z,2.90
2019-03-31T08:40:41.432Z,2.80
2019-03-31T08:43:45.512Z,2.17
2019-03-31T08:46:49.391Z,2.10
2019-03-31T08:49:55.850Z,2.10
2019-03-31T08:53:03.938Z,1.85
2019-03-31T08:56:13.974Z,2.17
2019-03-31T08:59:21.788Z,2.15
2019-03-31T09:02:38.303Z,1.85
2019-03-31T09:05:42.219Z,2.25
2019-03-31T09:08:45.960Z,2.20
2019-03-31T09:11:49.961Z,2.72
2019-03-31T09:14:53.901Z,2.60
2019-03-31T09:17:57.586Z,2.08
2019-03-31T09:21:01.415Z,2.10
2019-03-31T09:24:05.504Z,2.08
2019-03-31T09:27:09.395Z,2.37
2019-03-31T09:30:13.329Z,2.12
2019-03-31T09:33:17.006Z,2.70
2019-03-31T09:36:20.574Z,2.30
2019-03-31T09:39:24.187Z,2.45
2019-03-31T09:42:27.834Z,1.90
2019-03-31T09:45:31.502Z,1.95
2019-03-31T09:48:35.154Z,1.80
2019-03-31T09:51:38.789Z,1.77
2019-03-31T09:54:42.507Z,1.65
2019-03-31T09:57:46.124Z,1.95
2019-03-31T10:00:52.314Z,2.00
2019-03-31T10:04:01.340Z,2.00
2019-03-31T10:07:08.132Z,2.10
2019-03-31T10:10:19.260Z,1.60
2019-03-31T10:13:25.334Z,3.17
2019-03-31T10:16:32.329Z,2.95
2019-03-31T10:19:38.100Z,1.75
2019-03-31T10:23:03.938Z,1.80
2019-03-31T10:26:09.727Z,1.98
2019-03-31T10:29:16.104Z,2.17
2019-03-31T10:32:21.831Z,1.70
2019-03-31T10:35:27.454Z,1.70
2019-03-31T10:38:31.455Z,2.10
2019-03-31T10:41:35.244Z,2.55
2019-03-31T10:44:38.981Z,2.25
2019-03-31T10:47:42.842Z,2.47
2019-03-31T10:50:46.462Z,2.10
2019-03-31T10:53:50.191Z,2.47
2019-03-31T10:56:53.916Z,3.90
2019-03-31T10:59:58.129Z,3.70
2019-03-31T11:03:02.260Z,2.60
2019-03-31T11:06:05.948Z,2.20
2019-03-31T11:09:09.686Z,1.90
2019-03-31T11:12:13.426Z,1.62
2019-03-31T11:15:22.033Z,1.60
2019-03-31T11:18:24.942Z,2.10
2019-03-31T11:21:33.346Z,2.27
2019-03-31T11:24:36.576Z,1.87
2019-03-31T11:27:43.636Z,1.80
2019-03-31T11:30:45.649Z,2.30
2019-03-31T11:33:49.382Z,2.37
2019-03-31T11:36:52.988Z,1.90
2019-03-31T11:39:57.720Z,1.67
2019-03-31T11:43:01.321Z,1.87
2019-03-31T11:46:04.923Z,2.00
2019-03-31T11:49:08.590Z,2.30
2019-03-31T11:52:12.199Z,1.98
2019-03-31T11:55:15.835Z,2.10
2019-03-31T11:58:19.562Z,2.27
2019-03-31T12:01:23.538Z,2.70
2019-03-31T12:04:27.420Z,2.10
2019-03-31T12:07:45.707Z,2.47
2019-03-31T12:10:36.790Z,2.50
2019-03-31T12:13:40.410Z,1.95
2019-03-31T12:16:44.185Z,2.15
2019-03-31T12:19:48.937Z,2.60
2019-03-31T12:22:53.142Z,2.20
2019-03-31T12:25:57.141Z,1.87
2019-03-31T12:29:00.796Z,1.72
2019-03-31T12:32:04.712Z,2.08
2019-03-31T12:35:08.980Z,1.60
2019-03-31T12:38:12.669Z,1.45
2019-03-31T12:41:16.758Z,2.08
2019-03-31T12:44:20.866Z,1.92
2019-03-31T12:47:24.804Z,1.87
2019-03-31T12:50:28.892Z,2.08
2019-03-31T12:53:32.503Z,1.90
2019-03-31T12:56:36.656Z,2.50
2019-03-31T12:59:43.007Z,1.77
2019-03-31T13:02:46.964Z,6.53
2019-03-31T13:05:51.103Z,6.70
2019-03-31T13:08:54.951Z,2.47
2019-03-31T13:11:59.080Z,1.40
2019-03-31T13:15:03.000Z,2.10
2019-03-31T13:18:07.061Z,1.42
2019-03-31T13:21:11.058Z,2.10
2019-03-31T13:24:15.134Z,1.62
2019-03-31T13:27:19.028Z,2.08
2019-03-31T13:30:22.949Z,2.02
2019-03-31T13:33:26.644Z,1.95
2019-03-31T13:36:30.340Z,1.52
2019-03-31T13:39:34.261Z,2.20
2019-03-31T13:42:38.245Z,1.98
2019-03-31T13:45:42.263Z,2.92
2019-03-31T13:48:46.126Z,3.02
2019-03-31T13:51:49.893Z,1.85
2019-03-31T13:54:56.694Z,2.17
2019-03-31T13:58:02.666Z,1.60
2019-03-31T14:01:05.951Z,1.90
2019-03-31T14:04:12.429Z,2.12
2019-03-31T14:07:16.463Z,2.00
2019-03-31T14:10:20.384Z,3.05
2019-03-31T14:13:24.200Z,3.00
2019-03-31T14:16:29.262Z,2.98
2019-03-31T14:19:33.245Z,1.77
2019-03-31T14:22:56.272Z,3.50
2019-03-31T14:26:00.041Z,2.60
2019-03-31T14:29:03.765Z,1.80
2019-03-31T14:32:07.510Z,1.87
2019-03-31T14:35:11.215Z,1.75
2019-03-31T14:38:14.906Z,1.37
2019-03-31T14:41:18.637Z,1.52
2019-03-31T14:44:22.431Z,1.35
2019-03-31T14:47:26.070Z,1.42
2019-03-31T14:50:35.268Z,1.37
2019-03-31T14:53:38.968Z,1.45
2019-03-31T14:56:42.704Z,1.27
2019-03-31T14:59:46.343Z,0.90
2019-03-31T15:02:50.206Z,1.50
2019-03-31T15:05:53.856Z,1.65
2019-03-31T15:08:57.676Z,1.60
2019-03-31T15:12:01.363Z,1.47
2019-03-31T15:15:06.571Z,1.60
2019-03-31T15:18:10.947Z,3.50
2019-03-31T15:21:14.617Z,3.52
2019-03-31T15:24:19.857Z,2.77
2019-03-31T15:27:23.913Z,3.70
2019-03-31T15:30:27.524Z,2.63
2019-03-31T15:33:31.291Z,3.02
2019-03-31T15:36:34.922Z,5.20
2019-03-31T15:39:38.614Z,3.10
2019-03-31T15:42:42.817Z,2.65
2019-03-31T15:45:46.392Z,1.40
2019-03-31T15:48:50.293Z,2.45
2019-03-31T15:51:54.012Z,6.87
2019-03-31T15:54:57.936Z,6.22
2019-03-31T15:58:05.193Z,1.57
2019-03-31T16:01:07.308Z,1.72
2019-03-31T16:04:10.980Z,2.60
2019-03-31T16:07:14.862Z,8.70
2019-03-31T16:10:18.662Z,3.12
2019-03-31T16:13:22.344Z,2.30
2019-03-31T16:16:25.944Z,6.95
2019-03-31T16:19:29.832Z,3.60
2019-03-31T16:22:33.452Z,2.83
2019-03-31T16:25:38.766Z,4.28
2019-03-31T16:28:42.776Z,8.25
2019-03-31T16:31:46.635Z,3.07
2019-03-31T16:34:50.256Z,2.95
2019-03-31T16:37:53.917Z,1.60
2019-03-31T16:40:57.820Z,1.95
2019-03-31T16:44:01.628Z,2.22
2019-03-31T16:47:05.269Z,3.90
2019-03-31T16:50:08.993Z,2.00
2019-03-31T16:53:12.758Z,4.50
2019-03-31T16:56:16.401Z,53.75
2019-03-31T16:59:20.094Z,24.37
2019-03-31T17:02:23.951Z,21.57
2019-03-31T17:05:27.782Z,31.23
2019-03-31T17:08:31.510Z,14.15
2019-03-31T17:11:35.398Z,14.00
2019-03-31T17:14:39.070Z,79.03
2019-03-31T17:17:43.038Z,100.22
2019-03-31T17:20:46.698Z,25.90
2019-03-31T17:23:51.932Z,18.77
2019-03-31T17:26:55.589Z,14.80
2019-03-31T17:29:59.313Z,11.30
2019-03-31T17:33:02.916Z,7.17
2019-03-31T17:36:06.658Z,8.33
2019-03-31T17:39:10.333Z,10.00
2019-03-31T17:42:14.386Z,33.78
2019-03-31T17:45:18.100Z,74.70
2019-03-31T17:48:21.752Z,13.22
2019-03-31T17:51:25.428Z,11.15
2019-03-31T17:54:29.039Z,9.88
2019-03-31T17:57:32.955Z,14.70
2019-03-31T18:00:36.643Z,8.60
2019-03-31T18:03:40.454Z,11.75
2019-03-31T18:06:44.271Z,16.20
2019-03-31T18:09:47.994Z,13.08
2019-03-31T18:12:51.776Z,14.18
2019-03-31T18:15:58.574Z,15.45
2019-03-31T18:19:09.735Z,16.20
2019-03-31T18:22:16.564Z,13.22
2019-03-31T18:25:19.376Z,10.98
2019-03-31T18:28:23.184Z,12.20
2019-03-31T18:31:27.634Z,14.50
2019-03-31T18:34:31.511Z,17.50
2019-03-31T18:37:35.440Z,15.40
2019-03-31T18:40:41.218Z,11.33
2019-03-31T18:43:51.653Z,11.15
2019-03-31T18:46:50.638Z,22.93
2019-03-31T18:49:54.396Z,25.27
2019-03-31T18:52:58.084Z,30.45
2019-03-31T18:56:09.397Z,24.52
2019-03-31T18:59:26.757Z,23.05
2019-03-31T19:02:32.015Z,23.77
2019-03-31T19:05:54.172Z,28.35
2019-03-31T19:09:02.588Z,49.00
2019-03-31T19:12:07.929Z,19.52
2019-03-31T19:15:16.116Z,17.65
2019-03-31T19:18:38.016Z,14.15
2019-03-31T19:21:48.478Z,17.40
2019-03-31T19:25:10.566Z,26.02
2019-03-31T19:28:28.592Z,17.85
2019-03-31T19:31:44.110Z,12.28
2019-03-31T19:35:09.396Z,12.55
2019-03-31T19:38:14.825Z,12.18
2019-03-31T19:41:35.405Z,11.68
2019-03-31T19:44:40.699Z,11.30
2019-03-31T19:47:46.046Z,13.25
2019-03-31T19:50:54.020Z,13.13
2019-03-31T19:54:02.600Z,12.85
2019-03-31T19:57:19.938Z,14.45
2019-03-31T20:00:40.380Z,15.08
2019-03-31T20:04:00.934Z,18.60
2019-03-31T20:07:12.172Z,31.97
2019-03-31T20:10:17.491Z,37.55
2019-03-31T20:13:25.457Z,40.80
2019-03-31T20:16:47.510Z,45.00
2019-03-31T20:19:55.609Z,52.45
2019-03-31T20:23:06.749Z,54.30
2019-03-31T20:26:21.060Z,58.80
2019-03-31T20:29:29.463Z,62.10
2019-03-31T20:32:34.751Z,60.23
2019-03-31T20:35:55.083Z,54.95
2019-03-31T20:39:03.198Z,50.08
2019-03-31T20:42:08.513Z,47.80
2019-03-31T20:45:12.384Z,50.73
2019-03-31T20:48:15.982Z,55.67
2019-03-31T20:51:19.676Z,64.07
2019-03-31T20:54:23.310Z,120.00
2019-03-31T20:57:27.088Z,98.58
2019-03-31T21:00:30.872Z,81.83
2019-03-31T21:03:34.522Z,102.63
2019-03-31T21:06:38.440Z,93.90
2019-03-31T21:09:45.025Z,79.15
2019-03-31T21:12:47.732Z,69.75
2019-03-31T21:15:51.437Z,62.30
2019-03-31T21:18:55.175Z,71.85
2019-03-31T21:21:58.947Z,60.53
2019-03-31T21:25:03.135Z,56.40
2019-03-31T21:28:06.992Z,75.83
2019-03-31T21:31:11.266Z,86.20
2019-03-31T21:34:15.172Z,93.30
2019-03-31T21:37:18.781Z,91.78
2019-03-31T21:40:22.430Z,70.85
2019-03-31T21:43:26.097Z,62.38
2019-03-31T21:46:29.690Z,59.65
2019-03-31T21:49:33.455Z,53.17
2019-03-31T21:52:37.058Z,53.73
2019-03-31T21:55:40.722Z,62.58
2019-03-31T21:58:44.618Z,53.70
2019-03-31T22:01:48.238Z,51.10
2019-03-31T22:04:51.988Z,40.45
2019-03-31T22:07:55.952Z,23.03
2019-03-31T22:10:59.864Z,17.55
2019-03-31T22:14:04.772Z,22.87
2019-03-31T22:17:08.464Z,25.60
2019-03-31T22:20:12.102Z,27.13
2019-03-31T22:23:15.744Z,27.35
2019-03-31T22:26:19.989Z,27.05
2019-03-31T22:29:23.941Z,28.00
2019-03-31T22:32:27.678Z,27.07
2019-03-31T22:35:31.560Z,29.60
2019-03-31T22:38:35.313Z,27.20
2019-03-31T22:41:39.060Z,27.60
2019-03-31T22:44:42.762Z,27.97
2019-03-31T22:47:46.644Z,30.82
2019-03-31T22:50:50.350Z,39.93
2019-03-31T22:53:54.066Z,37.65
2019-03-31T22:56:57.672Z,39.27
2019-03-31T23:00:01.433Z,30.68
2019-03-31T23:03:05.046Z,34.37
2019-03-31T23:06:08.666Z,35.60
2019-03-31T23:09:12.305Z,36.30
2019-03-31T23:12:16.038Z,36.83
2019-03-31T23:15:19.702Z,40.17
2019-03-31T23:18:23.294Z,79.67
2019-03-31T23:21:27.034Z,118.70
2019-03-31T23:24:30.660Z,90.73
2019-03-31T23:27:34.385Z,68.92
2019-03-31T23:30:38.118Z,49.33
2019-03-31T23:33:41.797Z,51.13
2019-03-31T23:36:45.451Z,47.30
2019-03-31T23:39:49.220Z,42.65
2019-03-31T23:42:52.844Z,39.23
2019-03-31T23:45:56.542Z,38.80
2019-03-31T23:49:00.272Z,39.53
2019-03-31T23:52:03.906Z,38.60
2019-03-31T23:55:07.519Z,39.65
2019-03-31T23:58:11.636Z,36.85
